Terminal Aerodrome Forecast
Issued by NWS

Home | Current Version | Previous Version | Text Only | Print | Product List | Glossary On
Versions: 1 2 3 4 5 6 7 8 9 10 11 12 13 14 15 16 17 18 19 20 21 22 23 24 25
000
FTUS42 KILM 242320
TAFCRE
TAF
KCRE 242320Z 2500/2524 20015G25KT P6SM VCSH SCT020 OVC120
     FM250200 20018G27KT 6SM -SHRA VCTS BKN015 OVC050CB
      TEMPO 2502/2505 4SM SHRA SCT015 OVC050
     FM250500 21016KT P6SM VCSH BKN045
     FM250700 23012KT P6SM SCT045
     FM251400 22014G25KT P6SM BKN045 PROB30 2517/2519 4SM -SHRA
      BKN050
     FM252100 25015KT P6SM FEW200=

USA.gov is the U.S. government's official web portal to all federal, state and local government web resources and services.